createdAt,value
2019-03-16T00:00:35.876Z,6.70
2019-03-16T00:03:25.217Z,6.70
2019-03-16T00:06:14.618Z,6.70
2019-03-16T00:09:04.584Z,6.70
2019-03-16T00:11:54.120Z,6.60
2019-03-16T00:14:43.350Z,6.60
2019-03-16T00:17:33.037Z,6.60
2019-03-16T00:20:22.294Z,6.60
2019-03-16T00:23:11.465Z,6.60
2019-03-16T00:26:00.302Z,6.70
2019-03-16T00:28:49.595Z,6.70
2019-03-16T00:31:38.737Z,6.70
2019-03-16T00:34:28.642Z,6.70
2019-03-16T00:37:17.640Z,6.80
2019-03-16T00:40:10.462Z,6.80
2019-03-16T00:42:59.042Z,6.90
2019-03-16T00:45:48.506Z,6.90
2019-03-16T00:48:37.743Z,6.90
2019-03-16T00:51:27.240Z,7.00
2019-03-16T00:54:16.129Z,7.00
2019-03-16T00:57:05.364Z,7.00
2019-03-16T00:59:54.700Z,7.00
2019-03-16T01:02:44.196Z,7.00
2019-03-16T01:05:34.091Z,7.00
2019-03-16T01:08:22.895Z,7.00
2019-03-16T01:11:12.218Z,7.00
2019-03-16T01:14:01.950Z,6.90
2019-03-16T01:16:50.965Z,6.90
2019-03-16T01:19:40.014Z,7.00
2019-03-16T01:22:29.783Z,6.90
2019-03-16T01:25:18.990Z,6.90
2019-03-16T01:28:07.836Z,6.90
2019-03-16T01:30:56.897Z,6.90
2019-03-16T01:33:46.474Z,6.90
2019-03-16T01:36:35.794Z,6.90
2019-03-16T01:39:25.019Z,6.90
2019-03-16T01:42:14.023Z,6.90
2019-03-16T01:45:03.361Z,6.90
2019-03-16T01:47:52.430Z,6.90
2019-03-16T01:50:41.685Z,6.90
2019-03-16T01:53:30.707Z,7.00
2019-03-16T01:56:20.019Z,7.00
2019-03-16T01:59:08.889Z,7.00
2019-03-16T02:01:58.456Z,7.00
2019-03-16T02:04:47.595Z,7.00
2019-03-16T02:07:36.584Z,7.00
2019-03-16T02:10:25.631Z,6.90
2019-03-16T02:13:14.702Z,6.90
2019-03-16T02:16:10.782Z,6.90
2019-03-16T02:18:54.485Z,6.90
2019-03-16T02:21:43.945Z,6.90
2019-03-16T02:24:33.437Z,6.90
2019-03-16T02:27:22.745Z,6.90
2019-03-16T02:30:13.587Z,7.00
2019-03-16T02:33:12.834Z,6.90
2019-03-16T02:35:52.763Z,7.00
2019-03-16T02:38:41.597Z,7.00
2019-03-16T02:41:30.986Z,7.00
2019-03-16T02:44:20.279Z,7.00
2019-03-16T02:47:09.092Z,7.00
2019-03-16T02:49:58.161Z,7.00
2019-03-16T02:52:49.778Z,7.00
2019-03-16T02:55:37.688Z,7.00
2019-03-16T02:58:26.928Z,7.00
2019-03-16T03:01:16.321Z,7.00
2019-03-16T03:04:06.042Z,7.00
2019-03-16T03:06:54.939Z,7.00
2019-03-16T03:09:44.034Z,7.00
2019-03-16T03:12:33.466Z,7.00
2019-03-16T03:15:22.869Z,7.00
2019-03-16T03:18:12.010Z,7.00
2019-03-16T03:21:01.328Z,7.00
2019-03-16T03:23:50.035Z,6.90
2019-03-16T03:26:39.397Z,6.90
2019-03-16T03:29:28.461Z,6.90
2019-03-16T03:32:17.988Z,6.90
2019-03-16T03:35:09.063Z,6.90
2019-03-16T03:37:57.658Z,6.80
2019-03-16T03:40:46.985Z,6.80
2019-03-16T03:43:36.142Z,6.80
2019-03-16T03:46:25.726Z,6.80
2019-03-16T03:49:15.125Z,6.80
2019-03-16T03:52:04.601Z,6.80
2019-03-16T03:54:54.168Z,6.70
2019-03-16T03:57:43.219Z,6.70
2019-03-16T04:00:32.585Z,6.70
2019-03-16T04:03:21.337Z,6.70
2019-03-16T04:06:10.725Z,6.70
2019-03-16T04:09:00.287Z,6.70
2019-03-16T04:11:49.561Z,6.70
2019-03-16T04:14:38.644Z,6.70
2019-03-16T04:17:27.483Z,6.70
2019-03-16T04:20:16.908Z,6.70
2019-03-16T04:23:05.817Z,6.70
2019-03-16T04:25:54.809Z,6.70
2019-03-16T04:28:44.444Z,6.70
2019-03-16T04:31:33.942Z,6.60
2019-03-16T04:34:29.014Z,6.60
2019-03-16T04:37:13.399Z,6.60
2019-03-16T04:40:05.249Z,6.50
2019-03-16T04:42:54.390Z,6.50
2019-03-16T04:45:43.911Z,6.50
2019-03-16T04:48:33.159Z,6.50
2019-03-16T04:51:22.782Z,6.40
2019-03-16T04:54:11.774Z,6.40
2019-03-16T04:57:01.040Z,6.40
2019-03-16T04:59:50.317Z,6.40
2019-03-16T05:02:39.727Z,6.40
2019-03-16T05:05:28.534Z,6.40
2019-03-16T05:08:17.838Z,6.40
2019-03-16T05:11:07.242Z,6.30
2019-03-16T05:13:56.206Z,6.40
2019-03-16T05:16:44.907Z,6.40
2019-03-16T05:19:33.819Z,6.40
2019-03-16T05:22:23.171Z,6.50
2019-03-16T05:25:12.903Z,6.50
2019-03-16T05:28:02.209Z,6.50
2019-03-16T05:30:51.757Z,6.50
2019-03-16T05:33:41.418Z,6.50
2019-03-16T05:36:30.511Z,6.50
2019-03-16T05:39:19.866Z,6.40
2019-03-16T05:42:08.946Z,6.40
2019-03-16T05:44:58.002Z,6.40
2019-03-16T05:47:47.586Z,6.40
2019-03-16T05:50:36.755Z,6.30
2019-03-16T05:53:25.919Z,6.30
2019-03-16T05:56:14.968Z,6.20
2019-03-16T05:59:04.063Z,6.20
2019-03-16T06:01:52.986Z,6.20
2019-03-16T06:04:42.279Z,6.20
2019-03-16T06:07:31.235Z,6.30
2019-03-16T06:10:20.711Z,6.30
2019-03-16T06:13:09.666Z,6.30
2019-03-16T06:15:58.950Z,6.40
2019-03-16T06:18:47.373Z,6.40
2019-03-16T06:21:36.666Z,6.50
2019-03-16T06:24:28.156Z,6.50
2019-03-16T06:27:16.538Z,6.50
2019-03-16T06:30:15.955Z,6.50
2019-03-16T06:33:05.012Z,6.50
2019-03-16T06:35:54.262Z,6.50
2019-03-16T06:38:43.033Z,6.50
2019-03-16T06:41:32.334Z,6.50
2019-03-16T06:44:21.367Z,6.50
2019-03-16T06:47:10.666Z,6.50
2019-03-16T06:50:00.385Z,6.50
2019-03-16T06:52:49.507Z,6.70
2019-03-16T06:55:38.345Z,7.00
2019-03-16T06:58:26.908Z,7.30
2019-03-16T07:01:15.660Z,7.50
2019-03-16T07:04:04.439Z,7.50
2019-03-16T07:06:52.932Z,7.50
2019-03-16T07:09:41.287Z,7.50
2019-03-16T07:12:30.488Z,7.40
2019-03-16T07:15:19.362Z,7.30
2019-03-16T07:18:08.718Z,7.10
2019-03-16T07:20:58.098Z,7.10
2019-03-16T07:23:47.971Z,7.10
2019-03-16T07:26:36.422Z,7.00
2019-03-16T07:29:25.793Z,7.00
2019-03-16T07:32:14.675Z,7.10
2019-03-16T07:35:03.610Z,7.10
2019-03-16T07:37:52.944Z,7.20
2019-03-16T07:40:42.451Z,7.20
2019-03-16T07:43:31.623Z,7.30
2019-03-16T07:46:20.058Z,7.40
2019-03-16T07:49:09.038Z,7.40
2019-03-16T07:51:58.161Z,7.50
2019-03-16T07:54:47.898Z,7.50
2019-03-16T07:57:40.504Z,7.60
2019-03-16T08:00:28.471Z,7.80
2019-03-16T08:03:17.544Z,7.80
2019-03-16T08:06:07.113Z,7.90
2019-03-16T08:08:56.188Z,8.00
2019-03-16T08:11:45.315Z,8.10
2019-03-16T08:14:34.882Z,8.10
2019-03-16T08:17:24.700Z,8.20
2019-03-16T08:20:13.174Z,8.20
2019-03-16T08:23:02.600Z,8.20
2019-03-16T08:25:51.887Z,8.30
2019-03-16T08:28:40.366Z,8.30
2019-03-16T08:31:28.592Z,8.40
2019-03-16T08:34:16.192Z,8.30
2019-03-16T08:37:04.668Z,8.30
2019-03-16T08:39:52.945Z,8.40
2019-03-16T08:42:42.086Z,8.40
2019-03-16T08:45:30.758Z,8.50
2019-03-16T08:48:23.188Z,8.50
2019-03-16T08:51:09.731Z,8.60
2019-03-16T08:53:59.159Z,8.60
2019-03-16T08:56:48.064Z,8.60
2019-03-16T08:59:37.357Z,8.60
2019-03-16T09:02:26.116Z,8.60
2019-03-16T09:05:15.628Z,8.70
2019-03-16T09:08:04.895Z,8.70
2019-03-16T09:10:54.680Z,8.70
2019-03-16T09:13:43.225Z,8.70
2019-03-16T09:16:32.598Z,8.80
2019-03-16T09:19:21.676Z,8.70
2019-03-16T09:22:11.133Z,8.70
2019-03-16T09:25:00.817Z,8.50
2019-03-16T09:27:50.102Z,8.40
2019-03-16T09:30:39.565Z,8.30
2019-03-16T09:33:32.402Z,8.30
2019-03-16T09:36:21.965Z,8.30
2019-03-16T09:39:11.147Z,8.40
2019-03-16T09:42:00.653Z,8.30
2019-03-16T09:44:49.616Z,8.20
2019-03-16T09:47:38.757Z,8.20
2019-03-16T09:50:27.609Z,8.10
2019-03-16T09:53:17.015Z,8.20
2019-03-16T09:56:05.914Z,8.10
2019-03-16T09:58:55.023Z,8.10
2019-03-16T10:01:43.803Z,8.20
2019-03-16T10:04:33.086Z,8.20
2019-03-16T10:07:22.082Z,8.30
2019-03-16T10:10:16.094Z,8.30
2019-03-16T10:13:05.553Z,8.50
2019-03-16T10:15:55.039Z,8.60
2019-03-16T10:18:43.321Z,8.80
2019-03-16T10:21:32.660Z,9.00
2019-03-16T10:24:21.965Z,8.90
2019-03-16T10:27:10.789Z,8.80
2019-03-16T10:30:00.367Z,8.90
2019-03-16T10:32:50.966Z,9.10
2019-03-16T10:35:39.257Z,9.10
2019-03-16T10:38:27.670Z,9.20
2019-03-16T10:41:16.717Z,9.00
2019-03-16T10:44:05.992Z,8.50
2019-03-16T10:46:55.192Z,8.50
2019-03-16T10:49:44.936Z,8.70
2019-03-16T10:52:33.711Z,8.90
2019-03-16T10:55:22.051Z,8.90
2019-03-16T10:58:11.415Z,9.00
2019-03-16T11:01:00.783Z,8.90
2019-03-16T11:03:49.798Z,9.00
2019-03-16T11:06:38.243Z,9.00
2019-03-16T11:09:27.584Z,9.10
2019-03-16T11:12:16.670Z,9.00
2019-03-16T11:15:10.416Z,8.90
2019-03-16T11:17:59.848Z,8.80
2019-03-16T11:20:49.069Z,8.40
2019-03-16T11:23:38.309Z,8.10
2019-03-16T11:26:27.598Z,7.80
2019-03-16T11:29:16.685Z,7.70
2019-03-16T11:32:06.136Z,7.70
2019-03-16T11:34:54.914Z,7.70
2019-03-16T11:37:44.055Z,7.60
2019-03-16T11:40:33.392Z,7.50
2019-03-16T11:43:22.017Z,7.30
2019-03-16T11:46:11.250Z,7.20
2019-03-16T11:49:00.745Z,7.20
2019-03-16T11:51:49.865Z,7.00
2019-03-16T11:54:39.367Z,6.90
2019-03-16T11:57:28.317Z,7.00
2019-03-16T12:00:18.100Z,7.10
2019-03-16T12:03:07.208Z,7.20
2019-03-16T12:05:56.546Z,7.30
2019-03-16T12:08:46.075Z,7.30
2019-03-16T12:11:35.393Z,7.20
2019-03-16T12:14:24.249Z,7.20
2019-03-16T12:17:13.499Z,7.00
2019-03-16T12:20:02.343Z,7.00
2019-03-16T12:22:51.132Z,6.80
2019-03-16T12:25:40.231Z,6.70
2019-03-16T12:28:29.373Z,6.80
2019-03-16T12:31:18.358Z,6.90
2019-03-16T12:34:07.828Z,6.90
2019-03-16T12:36:56.903Z,6.80
2019-03-16T12:39:46.341Z,6.80
2019-03-16T12:42:35.117Z,6.70
2019-03-16T12:45:24.476Z,6.60
2019-03-16T12:48:13.644Z,6.60
2019-03-16T12:51:02.911Z,6.70
2019-03-16T12:53:52.154Z,6.60
2019-03-16T12:56:41.447Z,6.60
2019-03-16T12:59:30.520Z,6.50
2019-03-16T13:02:19.550Z,6.30
2019-03-16T13:05:09.262Z,6.30
2019-03-16T13:07:58.150Z,6.50
2019-03-16T13:10:47.489Z,6.50
2019-03-16T13:13:36.581Z,6.40
2019-03-16T13:16:26.131Z,6.20
2019-03-16T13:19:15.585Z,6.20
2019-03-16T13:22:04.307Z,6.20
2019-03-16T13:24:53.140Z,6.10
2019-03-16T13:27:41.721Z,6.10
2019-03-16T13:30:30.665Z,6.20
2019-03-16T13:33:20.304Z,6.30
2019-03-16T13:36:09.877Z,6.20
2019-03-16T13:38:58.847Z,6.30
2019-03-16T13:41:48.131Z,6.30
2019-03-16T13:44:37.667Z,6.40
2019-03-16T13:47:26.589Z,6.50
2019-03-16T13:50:20.552Z,6.50
2019-03-16T13:53:08.455Z,6.60
2019-03-16T13:55:57.337Z,6.80
2019-03-16T13:58:46.006Z,6.70
2019-03-16T14:01:34.450Z,6.80
2019-03-16T14:04:22.905Z,6.90
2019-03-16T14:07:11.275Z,6.80
2019-03-16T14:09:59.883Z,6.70
2019-03-16T14:12:48.447Z,6.70
2019-03-16T14:15:36.294Z,6.70
2019-03-16T14:18:24.437Z,6.80
2019-03-16T14:21:13.194Z,6.80
2019-03-16T14:24:01.651Z,6.80
2019-03-16T14:26:50.226Z,6.70
2019-03-16T14:29:38.545Z,6.70
2019-03-16T14:32:26.584Z,6.70
2019-03-16T14:35:15.409Z,6.70
2019-03-16T14:38:03.786Z,6.60
2019-03-16T14:40:52.156Z,6.60
2019-03-16T14:43:40.484Z,6.60
2019-03-16T14:46:29.110Z,6.60
2019-03-16T14:49:17.549Z,6.60
2019-03-16T14:52:05.637Z,6.50
2019-03-16T14:54:53.779Z,6.70
2019-03-16T14:57:41.978Z,6.80
2019-03-16T15:00:38.440Z,6.80
2019-03-16T15:03:20.270Z,6.80
2019-03-16T15:06:08.211Z,6.80
2019-03-16T15:08:56.747Z,6.90
2019-03-16T15:11:45.404Z,6.90
2019-03-16T15:14:33.099Z,7.00
2019-03-16T15:17:21.501Z,7.10
2019-03-16T15:20:10.872Z,7.20
2019-03-16T15:22:59.404Z,7.30
2019-03-16T15:25:48.089Z,7.40
2019-03-16T15:28:36.712Z,7.50
2019-03-16T15:31:25.131Z,7.70
2019-03-16T15:34:13.615Z,7.80
2019-03-16T15:37:01.856Z,8.00
2019-03-16T15:39:50.216Z,8.10
2019-03-16T15:42:38.760Z,8.20
2019-03-16T15:45:31.628Z,8.30
2019-03-16T15:48:20.159Z,8.30
2019-03-16T15:51:08.453Z,8.40
2019-03-16T15:53:56.872Z,8.40
2019-03-16T15:56:45.151Z,8.40
2019-03-16T15:59:33.700Z,8.40
2019-03-16T16:02:21.698Z,8.50
2019-03-16T16:05:10.788Z,8.50
2019-03-16T16:07:59.621Z,8.60
2019-03-16T16:11:00.377Z,8.60
2019-03-16T16:13:37.862Z,8.60
2019-03-16T16:16:25.737Z,8.70
2019-03-16T16:19:14.000Z,8.70
2019-03-16T16:22:02.544Z,8.70
2019-03-16T16:24:50.281Z,8.70
2019-03-16T16:27:38.983Z,8.70
2019-03-16T16:30:27.335Z,8.80
2019-03-16T16:33:15.994Z,8.80
2019-03-16T16:36:04.386Z,8.80
2019-03-16T16:38:52.304Z,8.90
2019-03-16T16:41:40.579Z,8.90
2019-03-16T16:44:28.858Z,8.90
2019-03-16T16:47:17.573Z,8.90
2019-03-16T16:50:22.551Z,8.90
2019-03-16T16:53:11.002Z,8.90
2019-03-16T16:55:58.878Z,8.90
2019-03-16T16:58:47.601Z,8.90
2019-03-16T17:01:36.234Z,8.90
2019-03-16T17:04:24.405Z,8.90
2019-03-16T17:07:12.253Z,8.90
2019-03-16T17:10:00.677Z,8.90
2019-03-16T17:12:49.337Z,8.90
2019-03-16T17:15:37.756Z,9.00
2019-03-16T17:18:26.035Z,8.90
2019-03-16T17:21:13.952Z,9.00
2019-03-16T17:24:02.319Z,9.00
2019-03-16T17:26:50.958Z,9.00
2019-03-16T17:29:39.212Z,9.00
2019-03-16T17:32:27.317Z,9.00
2019-03-16T17:35:15.504Z,9.00
2019-03-16T17:38:03.748Z,9.00
2019-03-16T17:40:51.840Z,9.00
2019-03-16T17:43:40.758Z,9.00
2019-03-16T17:46:29.094Z,9.10
2019-03-16T17:49:17.491Z,9.10
2019-03-16T17:52:05.867Z,9.10
2019-03-16T17:54:54.142Z,9.10
2019-03-16T17:57:45.042Z,9.10
2019-03-16T18:00:32.021Z,9.20
2019-03-16T18:03:20.280Z,9.20
2019-03-16T18:06:08.396Z,9.10
2019-03-16T18:08:57.007Z,9.10
2019-03-16T18:11:45.375Z,9.10
2019-03-16T18:14:33.794Z,9.10
2019-03-16T18:17:22.228Z,9.10
2019-03-16T18:20:12.648Z,9.10
2019-03-16T18:23:00.877Z,9.10
2019-03-16T18:25:48.579Z,9.10
2019-03-16T18:28:38.575Z,9.10
2019-03-16T18:31:26.558Z,9.10
2019-03-16T18:34:14.592Z,9.10
2019-03-16T18:37:02.794Z,9.10
2019-03-16T18:39:51.219Z,9.10
2019-03-16T18:42:39.298Z,9.10
2019-03-16T18:45:34.134Z,9.10
2019-03-16T18:48:22.896Z,9.10
2019-03-16T18:51:11.217Z,9.10
2019-03-16T18:53:59.696Z,9.10
2019-03-16T18:56:48.116Z,9.10
2019-03-16T18:59:36.698Z,9.10
2019-03-16T19:02:24.823Z,9.10
2019-03-16T19:05:13.690Z,9.10
2019-03-16T19:08:01.720Z,9.10
2019-03-16T19:10:53.001Z,9.10
2019-03-16T19:13:39.911Z,9.20
2019-03-16T19:16:28.344Z,9.20
2019-03-16T19:19:16.563Z,9.20
2019-03-16T19:22:04.478Z,9.20
2019-03-16T19:24:53.133Z,9.20
2019-03-16T19:27:41.504Z,9.20
2019-03-16T19:30:29.684Z,9.20
2019-03-16T19:33:17.679Z,9.20
2019-03-16T19:36:05.728Z,9.30
2019-03-16T19:38:54.477Z,9.30
2019-03-16T19:41:42.859Z,9.40
2019-03-16T19:44:31.177Z,9.40
2019-03-16T19:47:19.580Z,9.40
2019-03-16T19:50:10.938Z,9.50
2019-03-16T19:52:58.817Z,9.40
2019-03-16T19:55:47.333Z,9.50
2019-03-16T19:58:35.471Z,9.50
2019-03-16T20:01:23.408Z,9.60
2019-03-16T20:04:11.460Z,9.60
2019-03-16T20:06:59.968Z,9.60
2019-03-16T20:09:48.352Z,9.70
2019-03-16T20:12:36.717Z,9.60
2019-03-16T20:15:25.162Z,9.70
2019-03-16T20:18:13.747Z,9.70
2019-03-16T20:21:02.456Z,9.70
2019-03-16T20:23:50.199Z,9.80
2019-03-16T20:26:38.469Z,9.80
2019-03-16T20:29:26.993Z,9.80
2019-03-16T20:32:15.274Z,9.90
2019-03-16T20:35:03.980Z,9.90
2019-03-16T20:37:51.790Z,9.90
2019-03-16T20:40:39.876Z,10.00
2019-03-16T20:43:27.999Z,9.90
2019-03-16T20:46:16.031Z,10.00
2019-03-16T20:49:04.400Z,10.00
2019-03-16T20:51:52.405Z,10.00
2019-03-16T20:54:40.685Z,10.00
2019-03-16T20:57:28.920Z,10.00
2019-03-16T21:00:18.440Z,10.00
2019-03-16T21:03:16.059Z,10.00
2019-03-16T21:05:56.551Z,10.00
2019-03-16T21:08:44.901Z,10.00
2019-03-16T21:11:33.263Z,9.90
2019-03-16T21:14:20.875Z,10.00
2019-03-16T21:17:08.674Z,10.00
2019-03-16T21:19:56.945Z,10.00
2019-03-16T21:22:45.529Z,10.00
2019-03-16T21:25:34.258Z,10.00
2019-03-16T21:28:22.805Z,10.00
2019-03-16T21:31:11.361Z,10.00
2019-03-16T21:34:00.129Z,10.00
2019-03-16T21:36:48.805Z,10.00
2019-03-16T21:39:37.456Z,10.00
2019-03-16T21:42:25.610Z,10.00
2019-03-16T21:45:14.531Z,10.00
2019-03-16T21:48:02.490Z,10.00
2019-03-16T21:50:51.544Z,10.00
2019-03-16T21:53:39.798Z,10.00
2019-03-16T21:56:28.133Z,10.00
2019-03-16T21:59:16.097Z,10.00
2019-03-16T22:02:04.725Z,10.00
2019-03-16T22:04:52.864Z,9.90
2019-03-16T22:07:42.272Z,9.90
2019-03-16T22:10:30.688Z,9.90
2019-03-16T22:13:19.769Z,9.90
2019-03-16T22:16:11.638Z,9.80
2019-03-16T22:18:59.249Z,9.80
2019-03-16T22:21:48.781Z,9.80
2019-03-16T22:24:38.363Z,9.80
2019-03-16T22:27:27.702Z,9.80
2019-03-16T22:30:18.110Z,9.80
2019-03-16T22:33:07.697Z,9.80
2019-03-16T22:35:56.666Z,9.70
2019-03-16T22:38:45.735Z,9.80
2019-03-16T22:41:35.484Z,9.70
2019-03-16T22:44:24.611Z,9.80
2019-03-16T22:47:14.257Z,9.80
2019-03-16T22:50:03.214Z,9.80
2019-03-16T22:52:52.410Z,9.80
2019-03-16T22:55:41.651Z,9.80
2019-03-16T22:58:30.673Z,9.80
2019-03-16T23:01:20.569Z,9.80
2019-03-16T23:04:09.630Z,9.70
2019-03-16T23:06:59.040Z,9.80
2019-03-16T23:09:47.870Z,9.80
2019-03-16T23:12:37.370Z,9.80
2019-03-16T23:15:26.589Z,9.80
2019-03-16T23:18:15.502Z,9.80
2019-03-16T23:21:04.402Z,9.80
2019-03-16T23:23:53.831Z,9.80
2019-03-16T23:26:42.697Z,9.80
2019-03-16T23:29:31.852Z,9.90
2019-03-16T23:32:21.115Z,9.80
2019-03-16T23:35:10.501Z,9.80
2019-03-16T23:37:59.938Z,9.90
2019-03-16T23:40:49.451Z,9.90
2019-03-16T23:43:38.217Z,9.90
2019-03-16T23:46:27.169Z,9.90
2019-03-16T23:49:16.188Z,9.90
2019-03-16T23:52:05.302Z,9.90
2019-03-16T23:54:54.639Z,9.90
2019-03-16T23:57:46.489Z,9.90
